sensor_id;sensor_type;location;lat;lon;timestamp;pressure;altitude;pressure_sealevel;temperature;humidity
68329;BME280;55182;56.864;60.554;2023-01-10T00:01:04;81370.88;;;-143.60;65.54
68329;BME280;55182;56.864;60.554;2023-01-10T00:03:29;81362.84;;;-143.60;65.79
68329;BME280;55182;56.864;60.554;2023-01-10T00:05:55;81382.97;;;-143.60;65.66
68329;BME280;55182;56.864;60.554;2023-01-10T00:08:20;81378.94;;;-143.60;65.73
68329;BME280;55182;56.864;60.554;2023-01-10T00:10:46;81374.91;;;-143.60;65.57
68329;BME280;55182;56.864;60.554;2023-01-10T00:13:16;81376.91;;;-143.60;65.65
68329;BME280;55182;56.864;60.554;2023-01-10T00:15:41;81366.88;;;-143.60;65.66
68329;BME280;55182;56.864;60.554;2023-01-10T00:18:07;81368.88;;;-143.60;65.60
68329;BME280;55182;56.864;60.554;2023-01-10T00:20:33;81368.88;;;-143.60;65.63
68329;BME280;55182;56.864;60.554;2023-01-10T00:22:58;81372.91;;;-143.60;65.37
68329;BME280;55182;56.864;60.554;2023-01-10T00:25:23;81376.91;;;-143.60;65.59
68329;BME280;55182;56.864;60.554;2023-01-10T00:27:49;81380.94;;;-143.60;65.36
68329;BME280;55182;56.864;60.554;2023-01-10T00:30:16;81382.97;;;-143.60;65.47
68329;BME280;55182;56.864;60.554;2023-01-10T00:32:42;81372.91;;;-143.60;65.56
68329;BME280;55182;56.864;60.554;2023-01-10T00:35:08;81378.94;;;-143.60;65.57
68329;BME280;55182;56.864;60.554;2023-01-10T00:37:34;81370.88;;;-143.60;65.33
68329;BME280;55182;56.864;60.554;2023-01-10T00:39:59;81386.97;;;-143.60;65.29
68329;BME280;55182;56.864;60.554;2023-01-10T00:42:25;81380.94;;;-143.60;65.21
68329;BME280;55182;56.864;60.554;2023-01-10T00:44:50;81368.88;;;-143.60;64.99
68329;BME280;55182;56.864;60.554;2023-01-10T00:47:16;81372.91;;;-143.60;64.81
68329;BME280;55182;56.864;60.554;2023-01-10T00:49:41;81386.97;;;-143.60;64.78
68329;BME280;55182;56.864;60.554;2023-01-10T00:52:07;81382.97;;;-143.60;64.81
68329;BME280;55182;56.864;60.554;2023-01-10T00:54:32;81382.97;;;-143.60;64.78
68329;BME280;55182;56.864;60.554;2023-01-10T00:56:58;81374.91;;;-143.60;64.88
68329;BME280;55182;56.864;60.554;2023-01-10T00:59:23;81389.00;;;-143.60;64.69
68329;BME280;55182;56.864;60.554;2023-01-10T01:01:49;81386.97;;;-143.60;64.84
68329;BME280;55182;56.864;60.554;2023-01-10T01:04:15;81362.84;;;-143.60;64.78
68329;BME280;55182;56.864;60.554;2023-01-10T01:06:43;81376.91;;;-143.60;64.80
68329;BME280;55182;56.864;60.554;2023-01-10T01:09:09;81378.94;;;-143.60;64.73
68329;BME280;55182;56.864;60.554;2023-01-10T01:11:34;81374.91;;;-143.60;64.92
68329;BME280;55182;56.864;60.554;2023-01-10T01:14:00;81374.91;;;-143.60;64.92
68329;BME280;55182;56.864;60.554;2023-01-10T01:16:25;81378.94;;;-143.60;64.99
68329;BME280;55182;56.864;60.554;2023-01-10T01:18:51;81378.94;;;-143.60;64.92
68329;BME280;55182;56.864;60.554;2023-01-10T01:21:16;81360.81;;;-143.60;65.05
68329;BME280;55182;56.864;60.554;2023-01-10T01:23:42;81370.88;;;-143.60;64.81
68329;BME280;55182;56.864;60.554;2023-01-10T01:26:07;81344.72;;;-143.60;65.20
68329;BME280;55182;56.864;60.554;2023-01-10T01:28:33;81344.72;;;-143.60;64.82
68329;BME280;55182;56.864;60.554;2023-01-10T01:31:05;81350.75;;;-143.60;65.11
68329;BME280;55182;56.864;60.554;2023-01-10T01:33:31;81346.75;;;-143.60;64.90
68329;BME280;55182;56.864;60.554;2023-01-10T01:35:56;81320.59;;;-143.60;65.19
68329;BME280;55182;56.864;60.554;2023-01-10T01:38:21;81328.63;;;-143.60;65.24
68329;BME280;55182;56.864;60.554;2023-01-10T01:40:47;81326.63;;;-143.60;65.32
68329;BME280;55182;56.864;60.554;2023-01-10T01:43:23;81314.53;;;-143.60;65.52
68329;BME280;55182;56.864;60.554;2023-01-10T01:45:49;81310.53;;;-143.60;65.70
68329;BME280;55182;56.864;60.554;2023-01-10T01:48:22;81304.47;;;-143.60;65.63
68329;BME280;55182;56.864;60.554;2023-01-10T01:55:47;81292.41;;;-143.60;65.74
68329;BME280;55182;56.864;60.554;2023-01-10T01:58:15;81314.53;;;-143.60;65.73
68329;BME280;55182;56.864;60.554;2023-01-10T02:00:41;81314.53;;;-143.60;65.60
68329;BME280;55182;56.864;60.554;2023-01-10T02:03:07;81306.50;;;-143.60;65.55
68329;BME280;55182;56.864;60.554;2023-01-10T02:05:33;81326.63;;;-143.60;65.62
68329;BME280;55182;56.864;60.554;2023-01-10T02:08:01;81310.53;;;-143.60;65.63
68329;BME280;55182;56.864;60.554;2023-01-10T02:10:28;81292.41;;;-143.60;65.76
68329;BME280;55182;56.864;60.554;2023-01-10T02:12:55;81274.31;;;-143.60;65.60
68329;BME280;55182;56.864;60.554;2023-01-10T02:15:23;81272.28;;;-143.60;65.54
68329;BME280;55182;56.864;60.554;2023-01-10T02:17:49;81266.25;;;-143.60;65.36
68329;BME280;55182;56.864;60.554;2023-01-10T02:20:17;81274.31;;;-143.60;65.42
68329;BME280;55182;56.864;60.554;2023-01-10T02:28:20;81290.41;;;-143.60;65.36
68329;BME280;55182;56.864;60.554;2023-01-10T02:35:27;81274.31;;;-143.60;65.65
68329;BME280;55182;56.864;60.554;2023-01-10T02:37:59;81266.25;;;-143.60;66.01
68329;BME280;55182;56.864;60.554;2023-01-10T02:47:50;81258.22;;;-143.60;65.41
68329;BME280;55182;56.864;60.554;2023-01-10T02:53:03;81254.19;;;-143.60;65.18
68329;BME280;55182;56.864;60.554;2023-01-10T02:55:37;81238.09;;;-143.60;65.28
68329;BME280;55182;56.864;60.554;2023-01-10T02:58:14;81242.09;;;-143.60;65.19
68329;BME280;55182;56.864;60.554;2023-01-10T03:00:47;81234.06;;;-143.60;65.04
68329;BME280;55182;56.864;60.554;2023-01-10T03:03:22;81217.97;;;-143.60;64.73
68329;BME280;55182;56.864;60.554;2023-01-10T03:10:59;81246.13;;;-143.60;64.67
68329;BME280;55182;56.864;60.554;2023-01-10T03:16:03;81242.09;;;-143.60;64.84
68329;BME280;55182;56.864;60.554;2023-01-10T03:18:37;81226.00;;;-143.60;64.99
68329;BME280;55182;56.864;60.554;2023-01-10T03:21:05;81205.91;;;-143.60;64.81
68329;BME280;55182;56.864;60.554;2023-01-10T03:23:32;81181.75;;;-143.60;64.71
68329;BME280;55182;56.864;60.554;2023-01-10T03:25:58;81197.84;;;-143.60;64.70
68329;BME280;55182;56.864;60.554;2023-01-10T03:28:38;81189.81;;;-143.60;64.49
68329;BME280;55182;56.864;60.554;2023-01-10T03:31:16;81193.81;;;-143.60;64.68
68329;BME280;55182;56.864;60.554;2023-01-10T03:33:43;81215.94;;;-143.60;64.33
68329;BME280;55182;56.864;60.554;2023-01-10T03:38:51;81246.13;;;-143.60;64.32
68329;BME280;55182;56.864;60.554;2023-01-10T03:46:21;81236.06;;;-143.60;64.21
68329;BME280;55182;56.864;60.554;2023-01-10T03:48:49;81205.91;;;-143.60;64.03
68329;BME280;55182;56.864;60.554;2023-01-10T03:51:15;81230.03;;;-143.60;64.20
68329;BME280;55182;56.864;60.554;2023-01-10T03:53:42;81234.06;;;-143.60;63.86
68329;BME280;55182;56.864;60.554;2023-01-10T03:56:07;81236.06;;;-143.60;63.97
68329;BME280;55182;56.864;60.554;2023-01-10T03:58:36;81232.06;;;-143.60;64.02
68329;BME280;55182;56.864;60.554;2023-01-10T04:01:02;81228.03;;;-143.60;63.93
68329;BME280;55182;56.864;60.554;2023-01-10T04:03:27;81234.06;;;-143.60;63.73
68329;BME280;55182;56.864;60.554;2023-01-10T04:05:53;81254.19;;;-143.60;63.57
68329;BME280;55182;56.864;60.554;2023-01-10T04:08:18;81248.16;;;-143.60;63.69
68329;BME280;55182;56.864;60.554;2023-01-10T04:10:47;81246.13;;;-143.60;63.74
68329;BME280;55182;56.864;60.554;2023-01-10T04:13:12;81254.19;;;-143.60;63.80
68329;BME280;55182;56.864;60.554;2023-01-10T04:15:38;81248.16;;;-143.60;63.59
68329;BME280;55182;56.864;60.554;2023-01-10T04:18:03;81250.16;;;-143.60;63.63
68329;BME280;55182;56.864;60.554;2023-01-10T04:20:29;81250.16;;;-143.60;63.81
68329;BME280;55182;56.864;60.554;2023-01-10T04:22:54;81246.13;;;-143.60;63.67
68329;BME280;55182;56.864;60.554;2023-01-10T04:25:21;81248.16;;;-143.60;63.55
68329;BME280;55182;56.864;60.554;2023-01-10T04:27:50;81254.19;;;-143.60;64.13
68329;BME280;55182;56.864;60.554;2023-01-10T04:30:16;81258.22;;;-143.60;64.21
68329;BME280;55182;56.864;60.554;2023-01-10T04:32:41;81228.03;;;-143.60;64.39
68329;BME280;55182;56.864;60.554;2023-01-10T04:35:07;81226.00;;;-143.60;64.29
68329;BME280;55182;56.864;60.554;2023-01-10T04:37:32;81226.00;;;-143.60;64.06
68329;BME280;55182;56.864;60.554;2023-01-10T04:39:57;81238.09;;;-143.60;64.07
68329;BME280;55182;56.864;60.554;2023-01-10T04:42:23;81213.94;;;-143.60;63.87
68329;BME280;55182;56.864;60.554;2023-01-10T04:44:48;81215.94;;;-143.60;64.13
68329;BME280;55182;56.864;60.554;2023-01-10T04:47:14;81222.00;;;-143.60;63.88
68329;BME280;55182;56.864;60.554;2023-01-10T04:49:39;81215.94;;;-143.60;64.19
68329;BME280;55182;56.864;60.554;2023-01-10T04:52:04;81211.94;;;-143.60;63.98
68329;BME280;55182;56.864;60.554;2023-01-10T04:54:30;81215.94;;;-143.60;64.35
68329;BME280;55182;56.864;60.554;2023-01-10T04:56:55;81244.13;;;-143.60;64.44
68329;BME280;55182;56.864;60.554;2023-01-10T04:59:21;81213.94;;;-143.60;64.54
68329;BME280;55182;56.864;60.554;2023-01-10T05:01:46;81240.09;;;-143.60;64.12
68329;BME280;55182;56.864;60.554;2023-01-10T05:04:12;81226.00;;;-143.60;64.46
68329;BME280;55182;56.864;60.554;2023-01-10T05:06:38;81242.09;;;-143.60;64.70
68329;BME280;55182;56.864;60.554;2023-01-10T05:09:03;81228.03;;;-143.60;64.89
68329;BME280;55182;56.864;60.554;2023-01-10T05:11:29;81203.88;;;-143.60;64.70
68329;BME280;55182;56.864;60.554;2023-01-10T05:13:54;81230.03;;;-143.60;64.54
68329;BME280;55182;56.864;60.554;2023-01-10T05:16:19;81205.91;;;-143.60;64.96
68329;BME280;55182;56.864;60.554;2023-01-10T05:18:45;81213.94;;;-143.60;65.01
68329;BME280;55182;56.864;60.554;2023-01-10T05:21:12;81209.91;;;-143.60;64.80
68329;BME280;55182;56.864;60.554;2023-01-10T05:23:38;81215.94;;;-143.60;64.83
68329;BME280;55182;56.864;60.554;2023-01-10T05:26:07;81228.03;;;-143.60;64.75
68329;BME280;55182;56.864;60.554;2023-01-10T05:28:33;81248.16;;;-143.60;64.68
68329;BME280;55182;56.864;60.554;2023-01-10T05:30:59;81217.97;;;-143.60;65.06
68329;BME280;55182;56.864;60.554;2023-01-10T05:33:24;81230.03;;;-143.60;65.07
68329;BME280;55182;56.864;60.554;2023-01-10T05:35:50;81217.97;;;-143.60;64.99
68329;BME280;55182;56.864;60.554;2023-01-10T05:38:15;81213.94;;;-143.60;64.81
68329;BME280;55182;56.864;60.554;2023-01-10T05:40:40;81226.00;;;-143.60;64.61
68329;BME280;55182;56.864;60.554;2023-01-10T05:43:06;81234.06;;;-143.60;64.57
68329;BME280;55182;56.864;60.554;2023-01-10T05:45:31;81226.00;;;-143.60;64.47
68329;BME280;55182;56.864;60.554;2023-01-10T05:47:57;81215.94;;;-143.60;64.62
68329;BME280;55182;56.864;60.554;2023-01-10T05:50:22;81217.97;;;-143.60;64.63
68329;BME280;55182;56.864;60.554;2023-01-10T05:52:48;81248.16;;;-143.60;64.22
68329;BME280;55182;56.864;60.554;2023-01-10T05:55:14;81250.16;;;-143.60;64.28
68329;BME280;55182;56.864;60.554;2023-01-10T05:57:39;81248.16;;;-143.60;64.36
68329;BME280;55182;56.864;60.554;2023-01-10T06:00:05;81234.06;;;-143.60;64.73
68329;BME280;55182;56.864;60.554;2023-01-10T06:02:36;81213.94;;;-143.60;64.71
68329;BME280;55182;56.864;60.554;2023-01-10T06:05:02;81224.00;;;-143.60;64.92
68329;BME280;55182;56.864;60.554;2023-01-10T06:07:27;81185.78;;;-143.60;64.82
68329;BME280;55182;56.864;60.554;2023-01-10T06:09:53;81175.72;;;-143.60;64.79
68329;BME280;55182;56.864;60.554;2023-01-10T06:12:18;81153.59;;;-143.60;64.28
68329;BME280;55182;56.864;60.554;2023-01-10T06:14:44;81149.56;;;-143.60;64.25
68329;BME280;55182;56.864;60.554;2023-01-10T06:17:10;81163.66;;;-143.60;64.29
68329;BME280;55182;56.864;60.554;2023-01-10T06:19:35;81181.75;;;-143.60;64.04
68329;BME280;55182;56.864;60.554;2023-01-10T06:22:01;81193.81;;;-143.60;63.98
68329;BME280;55182;56.864;60.554;2023-01-10T06:24:27;81203.88;;;-143.60;64.13
68329;BME280;55182;56.864;60.554;2023-01-10T06:26:52;81205.91;;;-143.60;64.13
68329;BME280;55182;56.864;60.554;2023-01-10T06:29:18;81215.94;;;-143.60;64.05
68329;BME280;55182;56.864;60.554;2023-01-10T06:31:43;81199.84;;;-143.60;64.35
68329;BME280;55182;56.864;60.554;2023-01-10T06:34:08;81219.97;;;-143.60;64.40
68329;BME280;55182;56.864;60.554;2023-01-10T06:36:34;81215.94;;;-143.60;64.32
68329;BME280;55182;56.864;60.554;2023-01-10T06:38:59;81209.91;;;-143.60;64.43
68329;BME280;55182;56.864;60.554;2023-01-10T06:41:25;81213.94;;;-143.60;64.41
68329;BME280;55182;56.864;60.554;2023-01-10T06:43:50;81211.94;;;-143.60;64.23
68329;BME280;55182;56.864;60.554;2023-01-10T06:46:16;81222.00;;;-143.60;64.15
68329;BME280;55182;56.864;60.554;2023-01-10T06:48:43;81232.06;;;-143.60;64.34
68329;BME280;55182;56.864;60.554;2023-01-10T06:51:09;81242.09;;;-143.60;64.51
68329;BME280;55182;56.864;60.554;2023-01-10T06:53:34;81238.09;;;-143.60;64.52
68329;BME280;55182;56.864;60.554;2023-01-10T06:56:00;81236.06;;;-143.60;64.65
68329;BME280;55182;56.864;60.554;2023-01-10T06:58:25;81238.09;;;-143.60;64.42
68329;BME280;55182;56.864;60.554;2023-01-10T07:00:51;81211.94;;;-143.60;64.93
68329;BME280;55182;56.864;60.554;2023-01-10T07:03:16;81205.91;;;-143.60;64.52
68329;BME280;55182;56.864;60.554;2023-01-10T07:05:42;81205.91;;;-143.60;64.58
68329;BME280;55182;56.864;60.554;2023-01-10T07:08:08;81193.81;;;-143.60;63.94
68329;BME280;55182;56.864;60.554;2023-01-10T07:10:33;81177.72;;;-143.60;64.03
68329;BME280;55182;56.864;60.554;2023-01-10T07:12:59;81165.66;;;-143.60;64.03
68329;BME280;55182;56.864;60.554;2023-01-10T07:15:25;81139.50;;;-143.60;63.80
68329;BME280;55182;56.864;60.554;2023-01-10T07:17:51;81127.44;;;-143.60;63.62
68329;BME280;55182;56.864;60.554;2023-01-10T07:20:17;81117.38;;;-143.60;63.30
68329;BME280;55182;56.864;60.554;2023-01-10T07:22:43;81105.28;;;-143.60;63.24
68329;BME280;55182;56.864;60.554;2023-01-10T07:25:08;81097.25;;;-143.60;63.52
68329;BME280;55182;56.864;60.554;2023-01-10T07:27:34;81085.19;;;-143.60;63.31
68329;BME280;55182;56.864;60.554;2023-01-10T07:30:00;81093.22;;;-143.60;63.20
68329;BME280;55182;56.864;60.554;2023-01-10T07:32:26;81081.16;;;-143.60;63.57
68329;BME280;55182;56.864;60.554;2023-01-10T07:34:52;81077.13;;;-143.60;63.63
68329;BME280;55182;56.864;60.554;2023-01-10T07:37:18;81069.09;;;-143.60;63.40
68329;BME280;55182;56.864;60.554;2023-01-10T07:39:43;81089.19;;;-143.60;63.40
68329;BME280;55182;56.864;60.554;2023-01-10T07:42:09;81099.25;;;-143.60;63.35
68329;BME280;55182;56.864;60.554;2023-01-10T07:44:36;81089.19;;;-143.60;63.61
68329;BME280;55182;56.864;60.554;2023-01-10T07:47:01;81089.19;;;-143.60;63.50
68329;BME280;55182;56.864;60.554;2023-01-10T07:49:27;81089.19;;;-143.60;63.89
68329;BME280;55182;56.864;60.554;2023-01-10T07:51:52;81085.19;;;-143.60;63.83
68329;BME280;55182;56.864;60.554;2023-01-10T07:54:18;81101.28;;;-143.60;63.65
68329;BME280;55182;56.864;60.554;2023-01-10T07:56:44;81101.28;;;-143.60;64.07
68329;BME280;55182;56.864;60.554;2023-01-10T07:59:10;81099.25;;;-143.60;64.13
68329;BME280;55182;56.864;60.554;2023-01-10T08:01:35;81093.22;;;-143.60;64.23
68329;BME280;55182;56.864;60.554;2023-01-10T08:04:00;81085.19;;;-143.60;64.20
68329;BME280;55182;56.864;60.554;2023-01-10T08:06:26;81083.16;;;-143.60;64.20
68329;BME280;55182;56.864;60.554;2023-01-10T08:08:52;81085.19;;;-143.60;64.22
68329;BME280;55182;56.864;60.554;2023-01-10T08:11:17;81087.19;;;-143.60;64.31
68329;BME280;55182;56.864;60.554;2023-01-10T08:13:43;81085.19;;;-143.60;64.39
68329;BME280;55182;56.864;60.554;2023-01-10T08:16:08;81073.09;;;-143.60;64.52
68329;BME280;55182;56.864;60.554;2023-01-10T08:18:34;81061.03;;;-143.60;64.54
68329;BME280;55182;56.864;60.554;2023-01-10T08:20:59;81036.88;;;-143.60;64.67
68329;BME280;55182;56.864;60.554;2023-01-10T08:23:25;81016.78;;;-143.60;64.65
68329;BME280;55182;56.864;60.554;2023-01-10T08:25:50;80996.66;;;-143.60;64.57
68329;BME280;55182;56.864;60.554;2023-01-10T08:28:15;80980.56;;;-143.60;64.29
68329;BME280;55182;56.864;60.554;2023-01-10T08:30:41;80958.44;;;-143.60;64.17
68329;BME280;55182;56.864;60.554;2023-01-10T08:33:07;80944.34;;;-143.60;63.99
68329;BME280;55182;56.864;60.554;2023-01-10T08:35:37;80924.22;;;-143.60;63.74
68329;BME280;55182;56.864;60.554;2023-01-10T08:38:02;80928.25;;;-143.60;63.62
68329;BME280;55182;56.864;60.554;2023-01-10T08:40:28;80922.22;;;-143.60;63.86
68329;BME280;55182;56.864;60.554;2023-01-10T08:43:01;80936.28;;;-143.60;63.63
68329;BME280;55182;56.864;60.554;2023-01-10T08:45:27;80928.25;;;-143.60;64.02
68329;BME280;55182;56.864;60.554;2023-01-10T08:47:52;80920.19;;;-143.60;64.16
68329;BME280;55182;56.864;60.554;2023-01-10T08:50:18;80908.13;;;-143.60;64.15
68329;BME280;55182;56.864;60.554;2023-01-10T08:52:43;80894.03;;;-143.60;64.15
68329;BME280;55182;56.864;60.554;2023-01-10T08:55:09;80900.06;;;-143.60;64.09
68329;BME280;55182;56.864;60.554;2023-01-10T08:57:35;80898.06;;;-143.60;64.50
68329;BME280;55182;56.864;60.554;2023-01-10T09:00:00;80894.03;;;-143.60;64.46
68329;BME280;55182;56.864;60.554;2023-01-10T09:02:25;80896.06;;;-143.60;64.70
68329;BME280;55182;56.864;60.554;2023-01-10T09:04:51;80896.06;;;-143.60;64.85
68329;BME280;55182;56.864;60.554;2023-01-10T09:07:16;80881.97;;;-143.60;64.91
68329;BME280;55182;56.864;60.554;2023-01-10T09:09:42;80890.03;;;-143.60;65.01
68329;BME280;55182;56.864;60.554;2023-01-10T09:12:07;80875.94;;;-143.60;65.12
68329;BME280;55182;56.864;60.554;2023-01-10T09:14:33;80873.94;;;-143.60;65.21
68329;BME280;55182;56.864;60.554;2023-01-10T09:16:59;80875.94;;;-143.60;65.10
68329;BME280;55182;56.864;60.554;2023-01-10T09:19:24;80877.94;;;-143.60;65.33
68329;BME280;55182;56.864;60.554;2023-01-10T09:21:50;80863.88;;;-143.60;65.25
68329;BME280;55182;56.864;60.554;2023-01-10T09:24:15;80851.78;;;-143.60;65.26
68329;BME280;55182;56.864;60.554;2023-01-10T09:26:41;80855.81;;;-143.60;65.25
68329;BME280;55182;56.864;60.554;2023-01-10T09:29:06;80843.75;;;-143.60;65.21
68329;BME280;55182;56.864;60.554;2023-01-10T09:31:32;80835.69;;;-143.60;65.37
68329;BME280;55182;56.864;60.554;2023-01-10T09:33:57;80833.69;;;-143.60;65.17
68329;BME280;55182;56.864;60.554;2023-01-10T09:36:23;80803.50;;;-143.60;65.05
68329;BME280;55182;56.864;60.554;2023-01-10T09:38:49;80799.50;;;-143.60;64.99
68329;BME280;55182;56.864;60.554;2023-01-10T09:41:17;80775.34;;;-143.60;64.92
68329;BME280;55182;56.864;60.554;2023-01-10T09:51:49;80731.09;;;-143.60;64.82
68329;BME280;55182;56.864;60.554;2023-01-10T09:56:40;80717.00;;;-143.60;64.97
68329;BME280;55182;56.864;60.554;2023-01-10T09:59:10;80706.94;;;-143.60;64.99
68329;BME280;55182;56.864;60.554;2023-01-10T10:01:37;80694.88;;;-143.60;65.07
68329;BME280;55182;56.864;60.554;2023-01-10T10:04:22;80684.81;;;-143.60;65.32
68329;BME280;55182;56.864;60.554;2023-01-10T10:06:50;80684.81;;;-143.60;65.31
68329;BME280;55182;56.864;60.554;2023-01-10T10:09:16;80678.78;;;-143.60;65.44
68329;BME280;55182;56.864;60.554;2023-01-10T10:32:24;80662.69;;;-143.60;66.13
68329;BME280;55182;56.864;60.554;2023-01-10T10:34:59;80666.72;;;-143.60;66.10
68329;BME280;55182;56.864;60.554;2023-01-10T10:37:30;80662.69;;;-143.60;66.35
68329;BME280;55182;56.864;60.554;2023-01-10T10:42:30;80678.78;;;-143.60;66.37
68329;BME280;55182;56.864;60.554;2023-01-10T10:45:02;80682.81;;;-143.60;66.59
68329;BME280;55182;56.864;60.554;2023-01-10T10:47:32;80706.94;;;-143.60;66.78
68329;BME280;55182;56.864;60.554;2023-01-10T10:50:01;80710.97;;;-143.60;66.85
68329;BME280;55182;56.864;60.554;2023-01-10T10:52:32;80715.00;;;-143.60;66.97
68329;BME280;55182;56.864;60.554;2023-01-10T10:54:58;80719.00;;;-143.60;67.05
68329;BME280;55182;56.864;60.554;2023-01-10T10:57:24;80717.00;;;-143.60;67.30
68329;BME280;55182;56.864;60.554;2023-01-10T10:59:51;80715.00;;;-143.60;67.29
68329;BME280;55182;56.864;60.554;2023-01-10T11:03:00;80710.97;;;-143.60;67.37
68329;BME280;55182;56.864;60.554;2023-01-10T11:05:06;80721.03;;;-143.60;67.33
68329;BME280;55182;56.864;60.554;2023-01-10T11:07:39;80715.00;;;-143.60;67.38
68329;BME280;55182;56.864;60.554;2023-01-10T11:10:10;80725.06;;;-143.60;67.46
68329;BME280;55182;56.864;60.554;2023-01-10T11:12:38;80725.06;;;-143.60;67.55
68329;BME280;55182;56.864;60.554;2023-01-10T11:15:05;80727.06;;;-143.60;67.57
68329;BME280;55182;56.864;60.554;2023-01-10T11:17:31;80719.00;;;-143.60;67.93
68329;BME280;55182;56.864;60.554;2023-01-10T11:19:59;80719.00;;;-143.60;67.93
68329;BME280;55182;56.864;60.554;2023-01-10T11:22:26;80721.03;;;-143.60;67.96
68329;BME280;55182;56.864;60.554;2023-01-10T11:24:57;80723.03;;;-143.60;68.10
68329;BME280;55182;56.864;60.554;2023-01-10T11:27:27;80721.03;;;-143.60;68.12
68329;BME280;55182;56.864;60.554;2023-01-10T11:29:58;80733.09;;;-143.60;68.31
68329;BME280;55182;56.864;60.554;2023-01-10T11:32:37;80739.13;;;-143.60;68.25
68329;BME280;55182;56.864;60.554;2023-01-10T11:35:08;80737.13;;;-143.60;68.55
68329;BME280;55182;56.864;60.554;2023-01-10T11:37:40;80733.09;;;-143.60;68.53
68329;BME280;55182;56.864;60.554;2023-01-10T11:42:34;80743.16;;;-143.60;68.51
68329;BME280;55182;56.864;60.554;2023-01-10T11:47:38;80727.06;;;-143.60;68.88
68329;BME280;55182;56.864;60.554;2023-01-10T11:50:07;80739.13;;;-143.60;68.96
68329;BME280;55182;56.864;60.554;2023-01-10T11:52:33;80723.03;;;-143.60;68.96
68329;BME280;55182;56.864;60.554;2023-01-10T11:54:59;80727.06;;;-143.60;68.99
68329;BME280;55182;56.864;60.554;2023-01-10T11:57:26;80739.13;;;-143.60;68.92
68329;BME280;55182;56.864;60.554;2023-01-10T11:59:53;80731.09;;;-143.60;68.95
68329;BME280;55182;56.864;60.554;2023-01-10T12:02:27;80747.19;;;-143.60;69.21
68329;BME280;55182;56.864;60.554;2023-01-10T12:04:56;80743.16;;;-143.60;69.25
68329;BME280;55182;56.864;60.554;2023-01-10T12:07:23;80745.16;;;-143.60;69.27
68329;BME280;55182;56.864;60.554;2023-01-10T12:09:56;80743.16;;;-143.60;69.25
68329;BME280;55182;56.864;60.554;2023-01-10T12:12:23;80741.16;;;-143.60;69.37
68329;BME280;55182;56.864;60.554;2023-01-10T12:14:49;80743.16;;;-143.60;69.45
68329;BME280;55182;56.864;60.554;2023-01-10T12:19:51;80747.19;;;-143.60;69.59
68329;BME280;55182;56.864;60.554;2023-01-10T12:22:17;80731.09;;;-143.60;69.80
68329;BME280;55182;56.864;60.554;2023-01-10T12:24:46;80727.06;;;-143.60;69.72
68329;BME280;55182;56.864;60.554;2023-01-10T12:27:14;80715.00;;;-143.60;69.80
68329;BME280;55182;56.864;60.554;2023-01-10T12:29:42;80710.97;;;-143.60;69.67
68329;BME280;55182;56.864;60.554;2023-01-10T12:32:17;80700.91;;;-143.60;69.63
68329;BME280;55182;56.864;60.554;2023-01-10T12:34:48;80692.88;;;-143.60;69.52
68329;BME280;55182;56.864;60.554;2023-01-10T12:39:59;80686.81;;;-143.60;69.12
68329;BME280;55182;56.864;60.554;2023-01-10T12:44:59;80694.88;;;-143.60;69.16
68329;BME280;55182;56.864;60.554;2023-01-10T12:50:19;80682.81;;;-143.60;69.32
68329;BME280;55182;56.864;60.554;2023-01-10T12:53:05;80678.78;;;-143.60;69.28
68329;BME280;55182;56.864;60.554;2023-01-10T12:55:38;80690.84;;;-143.60;69.27
68329;BME280;55182;56.864;60.554;2023-01-10T12:58:05;80686.81;;;-143.60;69.28
68329;BME280;55182;56.864;60.554;2023-01-10T13:00:44;80694.88;;;-143.60;69.17
68329;BME280;55182;56.864;60.554;2023-01-10T13:03:12;80702.91;;;-143.60;69.20
68329;BME280;55182;56.864;60.554;2023-01-10T13:05:39;80700.91;;;-143.60;69.37
68329;BME280;55182;56.864;60.554;2023-01-10T13:08:08;80702.91;;;-143.60;69.34
68329;BME280;55182;56.864;60.554;2023-01-10T13:10:36;80702.91;;;-143.60;69.37
68329;BME280;55182;56.864;60.554;2023-01-10T13:15:38;80696.88;;;-143.60;69.68
68329;BME280;55182;56.864;60.554;2023-01-10T13:18:46;80690.84;;;-143.60;69.54
68329;BME280;55182;56.864;60.554;2023-01-10T13:21:02;80676.78;;;-143.60;69.50
68329;BME280;55182;56.864;60.554;2023-01-10T13:23:28;80666.72;;;-143.60;69.56
68329;BME280;55182;56.864;60.554;2023-01-10T13:25:56;80660.69;;;-143.60;69.37
68329;BME280;55182;56.864;60.554;2023-01-10T13:28:22;80654.63;;;-143.60;69.25
68329;BME280;55182;56.864;60.554;2023-01-10T13:30:53;80670.72;;;-143.60;69.21
68329;BME280;55182;56.864;60.554;2023-01-10T13:33:22;80676.78;;;-143.60;68.96
68329;BME280;55182;56.864;60.554;2023-01-10T13:35:50;80672.75;;;-143.60;69.20
68329;BME280;55182;56.864;60.554;2023-01-10T13:41:16;80682.81;;;-143.60;69.15
68329;BME280;55182;56.864;60.554;2023-01-10T13:51:19;80676.78;;;-143.60;68.92
68329;BME280;55182;56.864;60.554;2023-01-10T13:56:27;80674.75;;;-143.60;68.68
68329;BME280;55182;56.864;60.554;2023-01-10T13:58:53;80666.72;;;-143.60;68.57
68329;BME280;55182;56.864;60.554;2023-01-10T14:01:35;80670.72;;;-143.60;68.44
68329;BME280;55182;56.864;60.554;2023-01-10T14:04:01;80666.72;;;-143.60;68.38
68329;BME280;55182;56.864;60.554;2023-01-10T14:08:57;80668.72;;;-143.60;68.17
68329;BME280;55182;56.864;60.554;2023-01-10T14:14:19;80674.75;;;-143.60;68.22
68329;BME280;55182;56.864;60.554;2023-01-10T14:16:57;80666.72;;;-143.60;68.19
68329;BME280;55182;56.864;60.554;2023-01-10T14:19:33;80670.72;;;-143.60;68.01
68329;BME280;55182;56.864;60.554;2023-01-10T14:22:01;80658.66;;;-143.60;68.04